Bookmark and Share
Track history (hours):
 

Kvitbjoern

Last reported at 2014-Apr-11 07:28 UTC. Time now 2014-Apr-19 14:44 UTC.
Position N 66°22' E 012°21'.
Warning: this ship's position is 8 days out of date.

Length 10 m.

Type: Fishing. MMSI: 257454420.

NotesDate/timePositionNaut miles runAvg speedWind from/ knotsBaromVisibWave heightAir tempDewpointWater temp
2014-Apr-11 07:28N 66°22' E 012°21'  
2014-Apr-08 16:06N 66°22' E 012°21'0 0.0
2014-Apr-08 15:30N 66°22' E 012°21'0 0.0
2014-Apr-08 14:30N 66°22' E 012°21'0 0.0
2014-Apr-08 13:30N 66°22' E 012°21'0 0.0
2014-Apr-08 12:24N 66°22' E 012°21'0 0.0
2014-Apr-08 11:30N 66°22' E 012°21'0 0.0
2014-Apr-08 10:30N 66°22' E 012°21'1 1.4
2014-Apr-08 09:33N 66°23' E 012°23'1 0.6
2014-Apr-08 08:27N 66°24' E 012°22'0 0.2
2014-Apr-08 07:27N 66°24' E 012°22'0 0.4
2014-Apr-08 06:33N 66°24' E 012°23'2 1.6
2014-Apr-08 05:30N 66°22' E 012°24'1 0.1
2014-Apr-07 16:28N 66°22' E 012°21'0 0.0
2014-Apr-07 15:28N 66°22' E 012°21'2 2.2
2014-Apr-07 14:32N 66°22' E 012°26'3 2.5
2014-Apr-07 13:09N 66°22' E 012°35'3 5.7
2014-Apr-07 12:33N 66°22' E 012°26'1 0.8
2014-Apr-07 11:29N 66°22' E 012°24'0 0.2
2014-Apr-07 10:29N 66°22' E 012°24'2 1.9
2014-Apr-07 09:29N 66°24' E 012°24'1 0.9
2014-Apr-07 08:33N 66°24' E 012°22'0 0.3
2014-Apr-07 07:30N 66°24' E 012°23'0 0.2
2014-Apr-07 06:24N 66°24' E 012°22'1 1.0
2014-Apr-07 05:31N 66°23' E 012°21'1 0.1
2014-Apr-06 16:33N 66°22' E 012°22'2 1.8
2014-Apr-06 15:11N 66°20' E 012°26'1 1.1
2014-Apr-06 14:33N 66°20' E 012°28'2 2.1
2014-Apr-06 13:33N 66°21' E 012°24'2 2.4
2014-Apr-06 12:33N 66°23' E 012°19'1 1.0
2014-Apr-06 11:33N 66°23' E 012°21'1 0.0
2014-Apr-04 18:14N 66°22' E 012°21'0 0.0
2014-Apr-04 17:32N 66°22' E 012°21'0 0.0
2014-Apr-04 16:32N 66°22' E 012°21'0 0.0
2014-Apr-04 15:32N 66°22' E 012°21'1 1.3
2014-Apr-04 14:33N 66°24' E 012°22'4 3.8
2014-Apr-04 13:33N 66°20' E 012°25'3 3.3
2014-Apr-04 12:33N 66°21' E 012°32'5 0.6
2014-Apr-04 05:14N 66°18' E 012°25'5 6.5
2014-Apr-04 04:32N 66°22' E 012°23'1 0.1
2014-Apr-03 15:24N 66°22' E 012°21'4 4.8
2014-Apr-03 14:32N 66°22' E 012°32'3 2.7
2014-Apr-03 13:29N 66°20' E 012°38'2 0.3
2014-Apr-03 08:32N 66°18' E 012°36'4 1.3
2014-Apr-03 05:30N 66°22' E 012°35'5 5.4
2014-Apr-03 04:33N 66°22' E 012°23'0 0.0
2014-Apr-02 15:08N 66°22' E 012°21'2 4.1
2014-Apr-02 14:33N 66°22' E 012°27'4 3.3
2014-Apr-02 13:20N 66°22' E 012°37'4 1.2
2014-Apr-02 10:25N 66°18' E 012°33'5 1.0
2014-Apr-02 05:20N 66°23' E 012°34'5 6.1
2014-Apr-02 04:33N 66°22' E 012°22'0 0.0
2014-Apr-01 16:20N 66°22' E 012°21'0 0.0
2014-Apr-01 15:33N 66°22' E 012°21'  

Dump ship's entire track history

sailing weather and tide predictions

Kvitbjoern — LM9158 — position and weather